• Join FlightAware (Why Join?)
  • Login
  • US Flag 
12:14AM EDT


 

Airport Tracker/Info


-or-


 

Live Flight TrackerFlight Track Log ✈ SKW6534 ✈ 17-Apr-2013 ✈ KIDA - KDEN

Flight Track Log - Related Links

Times and Time Zones

All times are in EDT time to prevent confusion due to time zone crossing. See the SKW6534 flight status page for this flight to view local times or setup timezone preferences in your user account.

Time Position Orientation Groundspeed Altitude Reporting Facility
EDT Latitude Longitude Course Direction KTS MPH feet Rate Location/Type
07:16PM 43.4906 -111.9881 133° Southeast 248 285 7,900  Level Salt Lake Center
07:17PM 43.1680 -111.4274 127° Southeast  Level FlightAware Approximate
07:17PM 43.4397 -111.9181 135° Southeast 262 302 10,500  Level Salt Lake Center
07:18PM 43.0577 -111.2034 122° Southeast  Level FlightAware Approximate
07:18PM 43.3856 -111.8156 126° Southeast 283 326 13,300  Level Salt Lake Center
07:19PM 42.9359 -110.9915 130° Southeast  Level FlightAware Approximate
07:19PM 43.3344 -111.7206 126° Southeast 309 356 15,600  Level Salt Lake Center
07:20PM 42.8171 -110.7764 126° Southeast  Level FlightAware Approximate
07:20PM 43.2761 -111.6103 126° Southeast 318 366 18,000  Level Salt Lake Center
07:21PM 43.2219 -111.5117 127° Southeast 331 381 19,900 1,800 Climbing Salt Lake Center
07:22PM 43.1575 -111.3917 126° Southeast 348 400 21,700 1,560 Climbing Salt Lake Center
07:23PM 43.1014 -111.2864 126° Southeast 357 411 23,200 1,260 Climbing Salt Lake Center
07:24PM 43.0431 -111.1797 127° Southeast 364 419 24,400 1,260 Climbing Salt Lake Center
07:25PM 42.9722 -111.0511 127° Southeast 379 436 25,800 1,260 Climbing Salt Lake Center
07:26PM 42.9122 -110.9389 126° Southeast 382 440 27,000 1,020 Climbing Salt Lake Center
07:27PM 42.8381 -110.8067 127° Southeast 392 451 27,900 780 Climbing Salt Lake Center
07:28PM 42.7731 -110.6889 127° Southeast 405 466 28,600 660 Climbing Salt Lake Center
07:29PM 42.6989 -110.5561 127° Southeast 411 473 29,300 660 Climbing Salt Lake Center
07:30PM 42.6308 -110.4381 128° Southeast 414 476 30,000 660 Climbing Salt Lake Center
07:31PM 42.5522 -110.2983 127° Southeast 418 481 30,700 540 Climbing Salt Lake Center
07:32PM 42.4842 -110.1761 127° Southeast 422 486 31,200 480 Climbing Salt Lake Center
07:33PM 42.4153 -110.0539 127° Southeast 427 491 31,700 480 Climbing Salt Lake Center
07:34PM 42.3336 -109.9103 128° Southeast 431 496 32,200 480 Climbing Salt Lake Center
07:35PM 42.2631 -109.7864 128° Southeast 434 499 32,700 360 Climbing Salt Lake Center
07:36PM 42.1806 -109.6431 128° Southeast 433 498 33,000 120 Climbing Salt Lake Center
07:37PM 42.1081 -109.5164 128° Southeast 442 509 33,000  Level Salt Lake Center
07:38PM 42.0244 -109.3700 128° Southeast 442 509 33,000  Level Salt Lake Center
07:39PM 41.9522 -109.2467 128° Southeast 440 506 33,000  Level Salt Lake Center
07:40PM 41.8811 -109.1258 128° Southeast 433 498 33,000  Level Salt Lake Center
07:41PM 41.7983 -108.9850 128° Southeast 430 495 33,000  Level Salt Lake Center
07:42PM 41.7272 -108.8633 128° Southeast 430 495 33,000  Level Salt Lake Center
07:43PM 41.6444 -108.7214 128° Southeast 430 495 33,000  Level Salt Lake Center
07:44PM 41.5719 -108.6008 129° Southeast 432 497 33,000  Level Salt Lake Center
07:45PM 41.5008 -108.4803 128° Southeast 431 496 33,000  Level Salt Lake Center
07:47PM 41.4164 -108.3397 129° Southeast 433 498 33,000  Level Salt Lake Center
07:48PM 41.3261 -108.1731 126° Southeast 434 499 33,000  Level Denver Center
07:49PM 41.2736 -108.0336 117° Southeast 439 505 33,000  Level Denver Center
07:50PM 41.2325 -107.9181 115° Southeast 440 506 33,000  Level Salt Lake Center
07:51PM 41.1850 -107.7778 114° Southeast 436 502 33,000  Level Salt Lake Center
07:52PM 41.1297 -107.6139 114° Southeast 438 504 33,000  Level Salt Lake Center
07:53PM 41.0817 -107.4747 115° Southeast 435 501 33,000  Level Salt Lake Center
07:54PM 41.0186 -107.2883 114° Southeast 434 499 33,000  Level Denver Center
07:55PM 40.9689 -107.1492 115° Southeast 435 501 33,000  Level Denver Center
07:56PM 40.9131 -106.9869 114° Southeast 435 501 33,000  Level Denver Center
07:57PM 40.8644 -106.8492 115° Southeast 434 499 33,000 -480 Level Denver Center
07:58PM 40.8081 -106.6875 115° Southeast 435 501 32,100 -960 Descending Denver Center
07:59PM 40.7592 -106.5483 115° Southeast 438 504 31,100 -1,020 Descending Denver Center
08:00PM 40.7075 -106.4044 115° Southeast 434 499 30,100 -1,080 Descending Denver Center
08:01PM 40.6533 -106.2503 115° Southeast 417 480 29,000 -1,080 Descending Denver Center
08:02PM 40.6103 -106.1306 115° Southeast 401 461 27,900 -1,080 Descending Denver Center
08:03PM 40.5661 -106.0064 115° Southeast 374 430 26,800 -1,080 Descending Denver Center
08:04PM 40.5222 -105.8867 116° Southeast 364 419 25,700 -1,140 Descending Denver Center
08:05PM 40.4792 -105.7731 116° Southeast 347 399 24,500 -1,320 Descending Denver Center
08:06PM 40.4297 -105.6381 116° Southeast 348 400 23,100 -1,200 Descending Denver Center
08:07PM 40.3892 -105.5239 115° Southeast 343 395 22,100 -1,080 Descending Denver Center
08:08PM 40.3469 -105.4175 117° Southeast 348 400 21,000 -1,320 Descending Denver Center
08:09PM 40.2886 -105.3297 131° Southeast 318 366 19,400 -1,740 Descending Denver Center
08:10PM 40.2261 -105.2319 130° Southeast 322 371 17,500 -1,860 Descending Denver Center
08:11PM 40.1667 -105.1408 130° Southeast 328 377 15,700 -1,200 Descending Denver Center
08:12PM 40.1078 -105.0483 130° Southeast 329 379 15,100 -600 Descending Denver Center
08:13PM 40.0517 -104.9461 126° Southeast 322 371 14,500 -720 Descending Denver Center
08:14PM 40.0050 -104.8494 122° Southeast 317 365 13,700 -840 Descending Denver Center
08:15PM 39.9739 -104.7628 115° Southeast 263 303 12,900 -840 Descending Denver Center
08:16PM 39.9522 -104.6739 108° East 255 293 12,000 -900 Descending Denver Center
08:17PM 39.9158 -104.5931 120° Southeast 254 292 11,100 -840 Descending Denver Center
08:18PM 39.9000 -104.5667 128° Southeast 253 291 11,000 -120 Descending Denver TRACON
08:18PM 39.8636 -104.5294 142° Southeast 254 292 11,000  Level Denver Center
08:20PM 39.7917 -104.5286 179° South 255 293 11,000 -360 Level Denver Center
08:21PM 39.7189 -104.5272 179° South 258 297 10,300 -840 Descending Denver Center
08:22PM 39.6464 -104.5244 178° South 261 300 9,300 -660 Descending Denver Center
08:23PM 39.5753 -104.5242 180° South 261 300 9,000 -540 Descending Denver Center
08:24PM 39.5347 -104.5817 228° Southwest 218 251 8,200 -540 Descending Denver Center
08:25PM 39.5514 -104.6361 292° West 180 207 8,000 -120 Descending Denver Center
08:26PM 39.5967 -104.6450 351° North 170 196 8,000  Level Denver Center
08:27PM 39.6456 -104.6444 North 165 190 8,000  Level Denver Center
08:28PM 39.6922 -104.6436 North 166 191 8,000 -300 Level Denver Center
08:29PM 39.7358 -104.6433 360° North 156 180 7,400 -720 Descending Denver Center
08:30PM 39.7769 -104.6428 North 148 170 6,600 -840 Descending Denver Center
08:31PM 39.8144 -104.6419 North 127 146 5,800 -660 Descending Denver Center
08:32PM 39.8450 -104.6422 360° North 118 136 5,300 -540 Descending Denver Center